createdAt,value
2022-08-26T00:00:12.405Z,101117.31
2022-08-26T00:02:39.875Z,101120.50
2022-08-26T00:05:09.837Z,101115.97
2022-08-26T00:07:36.845Z,101116.47
2022-08-26T00:10:07.686Z,101120.53
2022-08-26T00:12:38.046Z,101114.81
2022-08-26T00:15:09.244Z,101117.16
2022-08-26T00:17:40.204Z,101120.44
2022-08-26T00:20:10.464Z,101121.88
2022-08-26T00:22:40.157Z,101121.34
2022-08-26T00:25:08.459Z,101121.88
2022-08-26T00:27:39.645Z,101112.53
2022-08-26T00:32:38.203Z,101108.97
2022-08-26T00:35:07.811Z,101112.94
2022-08-26T00:37:37.549Z,101103.72
2022-08-26T00:40:11.332Z,101107.91
2022-08-26T00:42:46.130Z,101104.38
2022-08-26T00:45:18.243Z,101109.66
2022-08-26T00:47:53.446Z,101101.88
2022-08-26T00:50:27.033Z,101097.16
2022-08-26T00:52:55.958Z,101108.34
2022-08-26T00:55:39.613Z,101099.16
2022-08-26T00:58:09.683Z,101105.38
2022-08-26T01:00:39.173Z,101103.88
2022-08-26T01:03:11.649Z,101112.78
2022-08-26T01:05:43.673Z,101102.44
2022-08-26T01:08:11.123Z,101101.69
2022-08-26T01:10:39.029Z,101097.34
2022-08-26T01:13:11.270Z,101095.75
2022-08-26T01:15:47.348Z,101101.38
2022-08-26T01:18:15.846Z,101104.06
2022-08-26T01:21:11.505Z,101105.22
2022-08-26T01:23:47.037Z,101107.41
2022-08-26T01:26:29.895Z,101107.06
2022-08-26T01:29:01.268Z,101105.06
2022-08-26T01:31:38.374Z,101108.34
2022-08-26T01:34:17.820Z,101109.19
2022-08-26T01:36:54.745Z,101104.91
2022-08-26T01:39:22.025Z,101108.44
2022-08-26T01:41:53.687Z,101108.56
2022-08-26T01:44:25.829Z,101102.34
2022-08-26T01:46:53.853Z,101099.41
2022-08-26T01:49:23.183Z,101108.47
2022-08-26T01:51:58.412Z,101113.44
2022-08-26T01:54:26.623Z,101108.41
2022-08-26T01:56:54.975Z,101107.41
2022-08-26T01:59:24.714Z,101107.41
2022-08-26T02:01:52.731Z,101103.84
2022-08-26T02:04:37.518Z,101107.56
2022-08-26T02:07:11.156Z,101098.13
2022-08-26T02:09:41.232Z,101105.50
2022-08-26T02:12:11.818Z,101096.09
2022-08-26T02:14:50.065Z,101093.56
2022-08-26T02:17:26.167Z,101100.28
2022-08-26T02:19:54.064Z,101096.22
2022-08-26T02:22:24.643Z,101098.88
2022-08-26T02:25:15.029Z,101104.25
2022-08-26T02:27:42.642Z,101101.16
2022-08-26T02:30:22.042Z,101096.50
2022-08-26T02:32:49.813Z,101095.84
2022-08-26T02:35:20.226Z,101089.47
2022-08-26T02:37:49.523Z,101085.50
2022-08-26T02:40:24.197Z,101087.91
2022-08-26T02:42:52.982Z,101092.25
2022-08-26T02:45:23.975Z,101089.38
2022-08-26T02:47:54.436Z,101092.38
2022-08-26T02:50:26.725Z,101083.63
2022-08-26T02:52:53.668Z,101090.25
2022-08-26T02:55:20.820Z,101088.84
2022-08-26T02:57:52.411Z,101085.09
2022-08-26T03:00:19.589Z,101086.78
2022-08-26T03:02:48.763Z,101084.47
2022-08-26T03:05:17.889Z,101075.09
2022-08-26T03:07:45.226Z,101072.09
2022-08-26T03:10:14.808Z,101068.50
2022-08-26T03:12:42.983Z,101062.88
2022-08-26T03:15:17.851Z,101070.44
2022-08-26T03:17:47.597Z,101064.78
2022-08-26T03:20:17.333Z,101066.56
2022-08-26T03:22:51.403Z,101066.34
2022-08-26T03:25:18.307Z,101058.16
2022-08-26T03:27:45.733Z,101061.28
2022-08-26T03:30:35.692Z,101062.25
2022-08-26T03:33:03.915Z,101060.91
2022-08-26T03:35:32.500Z,101060.47
2022-08-26T03:37:59.950Z,101049.88
2022-08-26T03:40:34.644Z,101052.66
2022-08-26T03:43:05.181Z,101058.78
2022-08-26T03:45:33.156Z,101055.66
2022-08-26T03:48:05.160Z,101056.38
2022-08-26T03:50:34.242Z,101056.97
2022-08-26T03:53:04.702Z,101062.16
2022-08-26T03:55:34.355Z,101061.06
2022-08-26T03:58:04.008Z,101056.75
2022-08-26T04:00:31.215Z,101065.41
2022-08-26T04:02:58.274Z,101056.75
2022-08-26T04:05:25.374Z,101056.88
2022-08-26T04:07:52.349Z,101049.78
2022-08-26T04:10:28.675Z,101050.97
2022-08-26T04:13:02.409Z,101053.50
2022-08-26T04:15:29.490Z,101064.56
2022-08-26T04:18:00.940Z,101056.75
2022-08-26T04:20:28.022Z,101046.53
2022-08-26T04:22:55.081Z,101047.03
2022-08-26T04:25:24.548Z,101051.59
2022-08-26T04:27:53.715Z,101046.53
2022-08-26T04:30:21.258Z,101047.84
2022-08-26T04:32:49.116Z,101046.53
2022-08-26T04:35:16.241Z,101047.59
2022-08-26T04:37:44.018Z,101047.97
2022-08-26T04:40:12.161Z,101043.03
2022-08-26T04:42:41.122Z,101042.06
2022-08-26T04:45:09.901Z,101035.59
2022-08-26T04:47:40.435Z,101050.00
2022-08-26T04:50:08.688Z,101058.28
2022-08-26T04:52:39.958Z,101059.50
2022-08-26T04:55:08.767Z,101056.09
2022-08-26T04:57:36.184Z,101060.09
2022-08-26T05:00:06.939Z,101052.38
2022-08-26T05:02:34.240Z,101052.63
2022-08-26T05:05:04.348Z,101058.75
2022-08-26T05:07:31.530Z,101055.91
2022-08-26T05:09:58.911Z,101055.66
2022-08-26T05:12:25.860Z,101061.28
2022-08-26T05:14:53.411Z,101050.91
2022-08-26T05:17:20.562Z,101058.22
2022-08-26T05:19:52.590Z,101053.88
2022-08-26T05:22:22.088Z,101050.03
2022-08-26T05:24:52.168Z,101050.72
2022-08-26T05:27:19.504Z,101054.06
2022-08-26T05:29:46.497Z,101052.47
2022-08-26T05:32:13.435Z,101047.41
2022-08-26T05:34:40.939Z,101052.63
2022-08-26T05:37:13.723Z,101052.06
2022-08-26T05:39:51.212Z,101049.47
2022-08-26T05:42:22.875Z,101057.34
2022-08-26T05:44:56.045Z,101067.34
2022-08-26T05:47:24.276Z,101061.03
2022-08-26T05:49:51.818Z,101060.88
2022-08-26T05:52:19.512Z,101061.63
2022-08-26T05:54:49.030Z,101066.59
2022-08-26T05:57:18.673Z,101070.03
2022-08-26T05:59:52.274Z,101071.88
2022-08-26T06:02:22.124Z,101076.81
2022-08-26T06:04:55.247Z,101070.94
2022-08-26T06:07:46.714Z,101075.28
2022-08-26T06:10:31.448Z,101070.34
2022-08-26T06:13:09.426Z,101078.16
2022-08-26T06:15:50.426Z,101081.38
2022-08-26T06:18:25.275Z,101075.81
2022-08-26T06:20:57.725Z,101077.03
2022-08-26T06:23:46.331Z,101079.16
2022-08-26T06:26:16.214Z,101073.41
2022-08-26T06:28:45.567Z,101076.56
2022-08-26T06:31:17.928Z,101067.34
2022-08-26T06:33:47.572Z,101064.13
2022-08-26T06:36:34.886Z,101065.00
2022-08-26T06:39:10.803Z,101063.72
2022-08-26T06:41:43.672Z,101072.38
2022-08-26T06:44:13.266Z,101062.16
2022-08-26T06:46:41.637Z,101062.69
2022-08-26T06:49:12.903Z,101058.66
2022-08-26T06:51:40.973Z,101056.69
2022-08-26T06:54:08.959Z,101064.22
2022-08-26T06:56:42.689Z,101072.13
2022-08-26T06:59:12.279Z,101068.78
2022-08-26T07:01:46.692Z,101071.50
2022-08-26T07:04:22.006Z,101065.97
2022-08-26T07:06:53.737Z,101067.78
2022-08-26T07:09:30.419Z,101071.97
2022-08-26T07:11:57.557Z,101071.00
2022-08-26T07:14:27.487Z,101070.84
2022-08-26T07:16:55.007Z,101068.28
2022-08-26T07:19:30.418Z,101075.88
2022-08-26T07:22:04.240Z,101072.44
2022-08-26T07:24:40.296Z,101075.22
2022-08-26T07:27:16.049Z,101069.47
2022-08-26T07:29:46.403Z,101070.97
2022-08-26T07:32:22.983Z,101078.22
2022-08-26T07:34:53.054Z,101078.34
2022-08-26T07:37:20.183Z,101077.78
2022-08-26T07:39:49.269Z,101074.88
2022-08-26T07:42:20.469Z,101082.75
2022-08-26T07:44:50.156Z,101079.41
2022-08-26T07:47:24.770Z,101077.44
2022-08-26T07:49:54.321Z,101078.53
2022-08-26T07:52:27.070Z,101073.97
2022-08-26T07:55:01.338Z,101076.16
2022-08-26T07:57:32.290Z,101078.00
2022-08-26T08:00:02.488Z,101076.88
2022-08-26T08:02:32.113Z,101076.16
2022-08-26T08:05:01.709Z,101080.38
2022-08-26T08:07:44.444Z,101081.94
2022-08-26T08:10:21.045Z,101072.53
2022-08-26T08:12:52.638Z,101074.88
2022-08-26T08:15:24.938Z,101077.94
2022-08-26T08:17:52.574Z,101064.63
2022-08-26T08:20:20.941Z,101069.06
2022-08-26T08:22:48.350Z,101064.28
2022-08-26T08:25:15.297Z,101063.94
2022-08-26T08:27:45.894Z,101060.25
2022-08-26T08:30:15.459Z,101074.03
2022-08-26T08:32:50.594Z,101076.84
2022-08-26T08:35:21.160Z,101075.13
2022-08-26T08:37:50.826Z,101066.06
2022-08-26T08:40:18.422Z,101072.78
2022-08-26T08:42:57.790Z,101070.28
2022-08-26T08:45:34.494Z,101068.75
2022-08-26T08:48:16.252Z,101073.69
2022-08-26T08:50:48.085Z,101070.81
2022-08-26T08:53:31.977Z,101070.59
2022-08-26T08:56:17.467Z,101066.66
2022-08-26T08:58:59.894Z,101062.69
2022-08-26T09:01:47.565Z,101065.28
2022-08-26T09:04:50.356Z,101060.38
2022-08-26T09:07:52.658Z,101058.81
2022-08-26T09:10:36.233Z,101059.16
2022-08-26T09:13:16.359Z,101061.13
2022-08-26T09:16:11.107Z,101062.03
2022-08-26T09:18:56.228Z,101058.22
2022-08-26T09:21:27.418Z,101054.63
2022-08-26T09:23:56.689Z,101057.91
2022-08-26T09:26:30.970Z,101058.91
2022-08-26T09:29:10.428Z,101054.91
2022-08-26T09:31:42.195Z,101055.91
2022-08-26T09:34:23.128Z,101057.41
2022-08-26T09:36:58.987Z,101052.94
2022-08-26T09:39:40.723Z,101045.38
2022-08-26T09:42:25.487Z,101052.09
2022-08-26T09:45:10.420Z,101043.31
2022-08-26T09:47:53.246Z,101047.88
2022-08-26T09:51:08.148Z,101036.19
2022-08-26T09:53:50.695Z,101035.28
2022-08-26T09:56:32.658Z,101033.00
2022-08-26T09:59:06.576Z,101031.78
2022-08-26T10:01:46.923Z,101029.34
2022-08-26T10:04:14.843Z,101037.19
2022-08-26T10:06:57.558Z,101027.75
2022-08-26T10:09:26.052Z,101021.94
2022-08-26T10:12:04.311Z,101020.03
2022-08-26T10:14:38.096Z,101017.97
2022-08-26T10:17:13.593Z,101011.97
2022-08-26T10:19:57.046Z,101010.22
2022-08-26T10:22:45.751Z,101011.25
2022-08-26T10:25:24.674Z,101010.66
2022-08-26T10:28:09.891Z,101011.88
2022-08-26T10:30:51.415Z,101010.22
2022-08-26T10:33:21.578Z,101002.75
2022-08-26T10:36:03.978Z,101006.91
2022-08-26T10:38:41.347Z,100999.97
2022-08-26T10:41:20.684Z,100987.00
2022-08-26T10:43:56.406Z,100982.03
2022-08-26T10:46:33.430Z,100990.81
2022-08-26T10:49:11.221Z,100981.22
2022-08-26T10:51:54.692Z,100977.91
2022-08-26T10:55:01.443Z,100981.69
2022-08-26T10:58:29.199Z,100970.44
2022-08-26T11:01:40.861Z,100963.22
2022-08-26T11:04:45.746Z,100953.00
2022-08-26T11:07:39.519Z,100957.19
2022-08-26T11:10:17.449Z,100954.22
2022-08-26T11:12:54.028Z,100943.50
2022-08-26T11:15:37.309Z,100950.50
2022-08-26T11:18:10.992Z,100949.38
2022-08-26T11:20:48.961Z,100947.63
2022-08-26T11:23:27.233Z,100938.88
2022-08-26T11:26:11.707Z,100927.69
2022-08-26T11:28:50.815Z,100929.09
2022-08-26T11:31:19.040Z,100927.81
2022-08-26T11:34:03.878Z,100906.91
2022-08-26T11:36:47.838Z,100906.41
2022-08-26T11:39:36.955Z,100904.41
2022-08-26T11:42:44.393Z,100897.50
2022-08-26T11:45:37.763Z,100896.81
2022-08-26T11:48:28.978Z,100886.06
2022-08-26T11:51:23.151Z,100888.09
2022-08-26T11:53:53.811Z,100878.25
2022-08-26T11:56:33.110Z,100872.28
2022-08-26T11:59:11.032Z,100869.59
2022-08-26T12:01:49.091Z,100873.13
2022-08-26T12:04:34.859Z,100875.69
2022-08-26T12:07:04.835Z,100871.81
2022-08-26T12:09:51.734Z,100873.31
2022-08-26T12:12:40.289Z,100879.09
2022-08-26T12:15:17.609Z,100877.91
2022-08-26T12:17:53.401Z,100880.69
2022-08-26T12:20:46.253Z,100874.00
2022-08-26T12:23:50.380Z,100862.63
2022-08-26T12:26:33.425Z,100872.00
2022-08-26T12:29:20.243Z,100864.09
2022-08-26T12:32:15.888Z,100858.19
2022-08-26T12:34:50.163Z,100855.06
2022-08-26T12:37:21.946Z,100849.50
2022-08-26T12:39:49.308Z,100842.84
2022-08-26T12:42:36.476Z,100841.34
2022-08-26T12:45:06.790Z,100843.16
2022-08-26T12:47:44.000Z,100835.66
2022-08-26T12:50:37.067Z,100842.66
2022-08-26T12:53:18.368Z,100833.91
2022-08-26T12:55:51.319Z,100830.59
2022-08-26T12:58:32.151Z,100835.03
2022-08-26T13:01:22.348Z,100832.91
2022-08-26T13:03:52.140Z,100833.56
2022-08-26T13:06:22.434Z,100820.44
2022-08-26T13:08:49.324Z,100826.63
2022-08-26T13:11:28.247Z,100820.88
2022-08-26T13:14:07.405Z,100815.44
2022-08-26T13:16:39.615Z,100812.56
2022-08-26T13:19:12.842Z,100799.81
2022-08-26T13:21:55.542Z,100800.63
2022-08-26T13:24:42.379Z,100801.94
2022-08-26T13:27:20.479Z,100794.47
2022-08-26T13:29:50.510Z,100795.25
2022-08-26T13:32:22.449Z,100790.03
2022-08-26T13:34:55.472Z,100783.00
2022-08-26T13:37:34.597Z,100777.31
2022-08-26T13:40:05.536Z,100769.47
2022-08-26T13:42:59.528Z,100775.97
2022-08-26T13:45:27.764Z,100780.34
2022-08-26T13:51:34.102Z,100776.00
2022-08-26T13:54:01.351Z,100778.47
2022-08-26T13:56:31.172Z,100778.81
2022-08-26T13:59:04.782Z,100783.19
2022-08-26T14:01:32.825Z,100779.97
2022-08-26T14:03:59.828Z,100781.75
2022-08-26T14:06:27.202Z,100778.66
2022-08-26T14:08:56.912Z,100771.53
2022-08-26T14:11:25.016Z,100784.69
2022-08-26T14:13:52.541Z,100773.03
2022-08-26T14:16:38.917Z,100783.00
2022-08-26T14:19:25.961Z,100778.38
2022-08-26T14:21:53.256Z,100778.03
2022-08-26T14:24:22.466Z,100786.81
2022-08-26T14:26:49.413Z,100787.75
2022-08-26T14:29:16.911Z,100780.75
2022-08-26T14:31:46.761Z,100778.59
2022-08-26T14:34:16.493Z,100766.97
2022-08-26T14:36:46.448Z,100766.16
2022-08-26T14:39:14.710Z,100770.41
2022-08-26T14:41:54.617Z,100778.31
2022-08-26T14:44:31.268Z,100777.28
2022-08-26T14:47:01.715Z,100778.53
2022-08-26T14:49:35.949Z,100770.16
2022-08-26T14:52:06.349Z,100762.25
2022-08-26T14:54:33.704Z,100760.84
2022-08-26T14:57:08.784Z,100757.72
2022-08-26T14:59:43.348Z,100757.09
2022-08-26T15:02:32.476Z,100759.25
2022-08-26T15:05:04.505Z,100757.69
2022-08-26T15:07:34.024Z,100764.44
2022-08-26T15:10:01.038Z,100773.25
2022-08-26T15:12:28.013Z,100756.06
2022-08-26T15:14:54.966Z,100767.81
2022-08-26T15:17:21.970Z,100763.50
2022-08-26T15:19:51.175Z,100763.13
2022-08-26T15:22:29.784Z,100769.72
2022-08-26T15:24:59.716Z,100769.41
2022-08-26T15:27:26.817Z,100782.63
2022-08-26T15:29:54.249Z,100784.66
2022-08-26T15:32:21.312Z,100795.03
2022-08-26T15:34:53.066Z,100797.88
2022-08-26T15:37:20.103Z,100806.59
2022-08-26T15:39:47.955Z,100805.41
2022-08-26T15:42:15.417Z,100811.50
2022-08-26T15:44:48.970Z,100816.09
2022-08-26T15:47:16.227Z,100822.28
2022-08-26T15:49:43.243Z,100823.75
2022-08-26T15:52:10.645Z,100821.16
2022-08-26T15:54:40.130Z,100825.06
2022-08-26T15:57:15.317Z,100824.25
2022-08-26T15:59:46.464Z,100823.59
2022-08-26T16:02:13.625Z,100817.13
2022-08-26T16:04:40.691Z,100821.69
2022-08-26T16:07:10.161Z,100826.69
2022-08-26T16:09:39.412Z,100826.53
2022-08-26T16:12:09.000Z,100827.53
2022-08-26T16:14:38.896Z,100830.97
2022-08-26T16:17:08.387Z,100827.16
2022-08-26T16:19:35.287Z,100849.88
2022-08-26T16:22:09.048Z,100847.41
2022-08-26T16:24:37.216Z,100847.16
2022-08-26T16:27:04.571Z,100828.47
2022-08-26T16:29:32.147Z,100811.22
2022-08-26T16:31:59.219Z,100819.00
2022-08-26T16:34:30.764Z,100815.38
2022-08-26T16:36:57.873Z,100819.84
2022-08-26T16:39:24.743Z,100803.13
2022-08-26T16:41:51.679Z,100801.47
2022-08-26T16:44:18.581Z,100806.75
2022-08-26T16:46:45.742Z,100807.81
2022-08-26T16:49:12.713Z,100781.91
2022-08-26T16:51:41.988Z,100795.00
2022-08-26T16:54:11.253Z,100788.00
2022-08-26T16:56:38.338Z,100796.38
2022-08-26T16:59:09.519Z,100797.69
2022-08-26T17:01:36.473Z,100787.19
2022-08-26T17:04:04.045Z,100788.00
2022-08-26T17:06:30.960Z,100786.06
2022-08-26T17:08:58.045Z,100811.34
2022-08-26T17:11:25.029Z,100814.84
2022-08-26T17:13:52.003Z,100834.34
2022-08-26T17:16:22.254Z,100854.19
2022-08-26T17:18:51.504Z,100855.88
2022-08-26T17:21:19.494Z,100863.53
2022-08-26T17:23:46.625Z,100860.47
2022-08-26T17:26:13.755Z,100866.34
2022-08-26T17:28:41.205Z,100871.41
2022-08-26T17:31:13.335Z,100872.94
2022-08-26T17:33:40.857Z,100871.19
2022-08-26T17:36:11.945Z,100858.44
2022-08-26T17:38:39.269Z,100850.69
2022-08-26T17:41:14.163Z,100842.88
2022-08-26T17:43:41.504Z,100847.03
2022-08-26T17:46:11.249Z,100849.50
2022-08-26T17:48:42.215Z,100845.91
2022-08-26T17:51:14.190Z,100861.81
2022-08-26T17:53:41.742Z,100861.78
2022-08-26T17:56:12.261Z,100860.63
2022-08-26T17:58:41.320Z,100868.44
2022-08-26T18:01:19.231Z,100879.72
2022-08-26T18:03:50.980Z,100881.44
2022-08-26T18:06:19.694Z,100896.88
2022-08-26T18:08:46.701Z,100917.03
2022-08-26T18:11:22.715Z,100927.75
2022-08-26T18:13:58.718Z,100944.94
2022-08-26T18:16:33.316Z,100942.53
2022-08-26T18:19:03.461Z,100941.91
2022-08-26T18:21:33.974Z,100945.56
2022-08-26T18:24:05.745Z,100956.00
2022-08-26T18:26:41.417Z,100965.06
2022-08-26T18:29:12.655Z,100963.19
2022-08-26T18:31:47.108Z,100954.81
2022-08-26T18:34:18.680Z,100956.78
2022-08-26T18:36:49.891Z,100941.38
2022-08-26T18:39:22.156Z,100926.63
2022-08-26T18:41:55.689Z,100918.97
2022-08-26T18:44:25.997Z,100911.16
2022-08-26T18:46:53.403Z,100910.47
2022-08-26T18:49:24.408Z,100902.97
2022-08-26T18:51:54.936Z,100907.34
2022-08-26T18:54:25.121Z,100900.59
2022-08-26T18:56:52.104Z,100909.50
2022-08-26T18:59:29.595Z,100912.72
2022-08-26T19:02:00.730Z,100934.59
2022-08-26T19:04:28.011Z,100923.75
2022-08-26T19:06:57.399Z,100927.00
2022-08-26T19:09:26.410Z,100927.56
2022-08-26T19:14:28.713Z,100920.03
2022-08-26T19:16:55.922Z,100911.31
2022-08-26T19:19:25.869Z,100897.69
2022-08-26T19:21:55.253Z,100897.22
2022-08-26T19:24:22.459Z,100894.38
2022-08-26T19:26:57.951Z,100887.28
2022-08-26T19:29:31.593Z,100886.69
2022-08-26T19:31:59.774Z,100885.72
2022-08-26T19:34:35.552Z,100885.78
2022-08-26T19:37:07.319Z,100883.69
2022-08-26T19:39:37.850Z,100898.09
2022-08-26T19:42:06.582Z,100879.31
2022-08-26T19:44:52.950Z,100891.44
2022-08-26T19:47:20.308Z,100891.97
2022-08-26T19:49:56.873Z,100897.13
2022-08-26T19:52:29.905Z,100893.50
2022-08-26T19:54:59.540Z,100901.47
2022-08-26T19:57:27.058Z,100906.88
2022-08-26T19:59:57.069Z,100906.84
2022-08-26T20:02:28.466Z,100914.44
2022-08-26T20:04:58.316Z,100911.06
2022-08-26T20:07:26.049Z,100910.56
2022-08-26T20:09:55.848Z,100910.81
2022-08-26T20:12:23.051Z,100902.59
2022-08-26T20:14:50.037Z,100900.81
2022-08-26T20:17:17.101Z,100896.31
2022-08-26T20:20:02.469Z,100902.69
2022-08-26T20:22:29.751Z,100895.09
2022-08-26T20:25:01.366Z,100896.25
2022-08-26T20:27:37.988Z,100897.47
2022-08-26T20:30:08.757Z,100906.50
2022-08-26T20:32:43.999Z,100905.72
2022-08-26T20:35:19.786Z,100898.50
2022-08-26T20:37:51.324Z,100901.25
2022-08-26T20:40:25.212Z,100905.22
2022-08-26T20:42:56.284Z,100911.53
2022-08-26T20:45:28.836Z,100915.78
2022-08-26T20:47:56.413Z,100909.56
2022-08-26T20:50:23.364Z,100907.19
2022-08-26T20:52:54.416Z,100904.91
2022-08-26T20:55:23.837Z,100904.16
2022-08-26T20:57:52.635Z,100919.38
2022-08-26T21:00:24.578Z,100922.41
2022-08-26T21:02:55.195Z,100913.13
2022-08-26T21:05:22.884Z,100929.00
2022-08-26T21:07:52.990Z,100922.59
2022-08-26T21:10:21.059Z,100921.38
2022-08-26T21:12:58.804Z,100918.78
2022-08-26T21:15:29.663Z,100921.56
2022-08-26T21:18:03.234Z,100917.50
2022-08-26T21:20:35.976Z,100922.09
2022-08-26T21:23:06.282Z,100918.75
2022-08-26T21:25:33.195Z,100918.47
2022-08-26T21:28:00.197Z,100910.69
2022-08-26T21:30:27.647Z,100906.38
2022-08-26T21:32:54.601Z,100915.41
2022-08-26T21:35:21.529Z,100916.25
2022-08-26T21:37:48.431Z,100910.75
2022-08-26T21:40:15.445Z,100910.34
2022-08-26T21:42:42.592Z,100920.47
2022-08-26T21:45:12.814Z,100923.13
2022-08-26T21:47:40.640Z,100922.09
2022-08-26T21:50:10.867Z,100918.25
2022-08-26T21:52:38.314Z,100910.03
2022-08-26T21:55:09.123Z,100909.38
2022-08-26T21:57:38.648Z,100918.53
2022-08-26T22:00:09.203Z,100913.38
2022-08-26T22:02:38.757Z,100905.13
2022-08-26T22:05:06.202Z,100921.28
2022-08-26T22:07:35.876Z,100909.50
2022-08-26T22:10:02.971Z,100925.16
2022-08-26T22:12:32.124Z,100924.22
2022-08-26T22:14:59.425Z,100930.34
2022-08-26T22:17:27.459Z,100931.88
2022-08-26T22:19:55.242Z,100934.06
2022-08-26T22:22:28.935Z,100938.69
2022-08-26T22:24:55.900Z,100929.03
2022-08-26T22:27:25.293Z,100928.72
2022-08-26T22:29:54.925Z,100931.56
2022-08-26T22:32:26.557Z,100930.38
2022-08-26T22:34:53.474Z,100930.22
2022-08-26T22:37:20.419Z,100925.78
2022-08-26T22:39:47.485Z,100930.56
2022-08-26T22:42:15.546Z,100919.22
2022-08-26T22:44:43.865Z,100918.72
2022-08-26T22:47:11.023Z,100918.06
2022-08-26T22:49:38.055Z,100919.31
2022-08-26T22:52:05.211Z,100923.16
2022-08-26T22:54:32.908Z,100916.63
2022-08-26T22:57:03.306Z,100913.91
2022-08-26T22:59:30.320Z,100910.13
2022-08-26T23:02:02.483Z,100914.03
2022-08-26T23:04:29.882Z,100904.88
2022-08-26T23:06:56.906Z,100900.50
2022-08-26T23:09:23.966Z,100902.66
2022-08-26T23:11:50.884Z,100906.53
2022-08-26T23:14:18.899Z,100908.06
2022-08-26T23:16:45.905Z,100898.91
2022-08-26T23:19:15.201Z,100906.91
2022-08-26T23:21:42.613Z,100899.91
2022-08-26T23:24:10.460Z,100901.16
2022-08-26T23:26:41.080Z,100902.00
2022-08-26T23:29:11.807Z,100900.00
2022-08-26T23:31:41.272Z,100895.81
2022-08-26T23:34:27.247Z,100901.75
2022-08-26T23:36:57.024Z,100892.78
2022-08-26T23:39:25.520Z,100898.09
2022-08-26T23:41:52.548Z,100897.56
2022-08-26T23:44:22.372Z,100889.91
2022-08-26T23:46:49.386Z,100885.38
2022-08-26T23:49:16.326Z,100901.16
2022-08-26T23:52:04.111Z,100896.63
2022-08-26T23:54:33.362Z,100892.94
2022-08-26T23:57:00.373Z,100889.72
2022-08-26T23:59:27.321Z,100893.94
